Imagination — C6FN2 — position and weather

sailwx.info

Track history (hours):
 
Tides and Currents Weather Stations Pressure Air Temp Water Temp Dewpoint Dewpoint Depression Visibility Wind Speed Wind Dir Waves Ship Positions

Imagination

Operator: Carnival Cruise Lines

Last reported at 2017-Oct-20 12:00 UTC. Time now 2017-Oct-20 19:52 UTC.
Position N 31°54' W 116°48'.

Type: Ship. MMSI: 309933000.

Wind from 070 at 2 knots

Barometer 1018.2 mb
Air temperature 19.0 ° C
Visibility: greater than 10.8 NM
Dewpoint 15.9 ° C
Water temperature 21.0 ° C

Date/timePositionNaut miles runAvg speedWind from/ knotsBaromVisibWave heightAir tempDewpointWater temp
2017-Oct-20 12:00N 31°54' W 116°48'4615.7 070 / 21018.210.8 19.015.921.0
2017-Oct-20 09:05N 32°20' W 117°32'212.0
2017-Oct-20 08:57N 32°22' W 117°33'511.8
2017-Oct-20 08:30N 32°26' W 117°35'611.4
2017-Oct-20 08:00N 32°32' W 117°38'611.1
2017-Oct-20 07:30N 32°36' W 117°42'510.8
2017-Oct-20 07:00N 32°40' W 117°46'611.5
2017-Oct-20 06:30N 32°45' W 117°49'611.8
2017-Oct-20 06:00N 32°51' W 117°52'4314.8
2017-Oct-20 06:00N 32°48' W 117°48'1020.4 270 / 121018.210.8 19.015.921.0
2017-Oct-20 05:30N 32°56' W 117°54'611.8
2017-Oct-20 05:00N 33°02' W 117°57'611.7
2017-Oct-20 04:30N 33°07' W 117°60'612.0
2017-Oct-20 04:00N 33°13' W 118°03'612.3
2017-Oct-20 03:29N 33°19' W 118°06'611.8
2017-Oct-20 03:00N 33°24' W 118°08'611.9
2017-Oct-20 02:30N 33°29' W 118°11'611.9
2017-Oct-20 02:00N 33°35' W 118°13'611.4
2017-Oct-20 01:30N 33°41' W 118°12'4 8.8
2017-Oct-20 01:00N 33°45' W 118°11'0 0.1
2017-Oct-20 00:08N 33°45' W 118°11'0 0.0
2017-Oct-19 23:55N 33°45' W 118°11'0 0.0
2017-Oct-19 23:25N 33°45' W 118°11'0 0.0
2017-Oct-19 22:55N 33°45' W 118°11'0 0.0
2017-Oct-19 22:25N 33°45' W 118°11'0 0.0
2017-Oct-19 21:49N 33°45' W 118°11'0 0.0
2017-Oct-19 21:24N 33°45' W 118°11'0 0.0
2017-Oct-19 21:00N 33°45' W 118°11'0 0.0
2017-Oct-19 20:24N 33°45' W 118°11'0 0.0
2017-Oct-19 20:00N 33°45' W 118°11'0 0.0
2017-Oct-19 17:47N 33°45' W 118°11'0 0.0
2017-Oct-19 17:29N 33°45' W 118°11'0 0.0
2017-Oct-19 16:58N 33°45' W 118°11'0 0.0
2017-Oct-19 16:28N 33°45' W 118°11'0 0.0
2017-Oct-19 15:22N 33°45' W 118°11'0 0.1
2017-Oct-19 12:28N 33°45' W 118°11'4 6.5
2017-Oct-19 11:55N 33°41' W 118°11'4 9.0
2017-Oct-19 11:30N 33°38' W 118°10'4 7.8
2017-Oct-19 11:00N 33°34' W 118°09'4 7.3
2017-Oct-19 10:30N 33°30' W 118°07'4 7.0
2017-Oct-19 10:00N 33°27' W 118°06'4 7.3
2017-Oct-19 09:30N 33°24' W 118°04'4 7.4
2017-Oct-19 09:00N 33°20' W 118°03'4 7.4
2017-Oct-19 08:30N 33°17' W 118°01'4 7.5
2017-Oct-19 08:00N 33°13' W 117°59'4 7.2
2017-Oct-19 07:30N 33°10' W 117°58'4 7.5
2017-Oct-19 07:00N 33°07' W 117°56'4 7.3
2017-Oct-19 06:30N 33°03' W 117°54'4 7.2
2017-Oct-19 06:00N 32°60' W 117°53'7459.6
2017-Oct-19 06:00N 33°06' W 117°48'1020.0 270 / 91016.210.8 19.017.520.0
2017-Oct-19 05:30N 32°57' W 117°51'4 7.2
2017-Oct-19 05:00N 32°53' W 117°50'4 7.1
2017-Oct-19 04:30N 32°50' W 117°49'3 7.0
2017-Oct-19 04:00N 32°46' W 117°48'3 6.8
2017-Oct-19 03:30N 32°43' W 117°47'4 7.1
2017-Oct-19 03:00N 32°39' W 117°46'3 7.0
2017-Oct-19 02:30N 32°37' W 117°44'4 7.1
2017-Oct-19 02:00N 32°36' W 117°40'4 7.0
2017-Oct-19 01:30N 32°34' W 117°36'4 7.2
2017-Oct-19 01:00N 32°31' W 117°36'4 7.1
2017-Oct-19 00:30N 32°27' W 117°35'5 9.9
2017-Oct-19 00:00N 32°24' W 117°30'413.8 290 / 121019.0 5.4 20.016.921.0
2017-Oct-18 23:43N 32°21' W 117°33'2 7.0
2017-Oct-18 23:24N 32°19' W 117°33'3 7.0
2017-Oct-18 23:00N 32°17' W 117°32'4 7.2
2017-Oct-18 22:30N 32°13' W 117°31'4 7.3
2017-Oct-18 22:00N 32°09' W 117°30'4 7.3
2017-Oct-18 21:30N 32°06' W 117°29'4 8.7
2017-Oct-18 21:00N 32°02' W 117°27'510.7
2017-Oct-18 20:30N 31°58' W 117°32'612.0
2017-Oct-18 20:00N 31°54' W 117°36'612.7
2017-Oct-18 19:30N 31°47' W 117°36'712.5
2017-Oct-18 18:59N 31°41' W 117°35'511.1
2017-Oct-18 18:30N 31°36' W 117°38'713.2
2017-Oct-18 18:00N 31°40' W 117°45'712.7
2017-Oct-18 17:29N 31°44' W 117°51'4 8.1
2017-Oct-18 17:00N 31°41' W 117°54'3 6.2
2017-Oct-18 16:30N 31°41' W 117°58'4 7.0
2017-Oct-18 16:00N 31°44' W 118°01'3 6.8
2017-Oct-18 15:30N 31°45' W 118°04'3 6.8
2017-Oct-18 15:00N 31°44' W 118°08'6 6.3
2017-Oct-18 14:00N 31°39' W 118°12'3 6.9
2017-Oct-18 13:30N 31°35' W 118°11'3 6.3
2017-Oct-18 12:58N 31°35' W 118°07'3 7.1
2017-Oct-18 12:30N 31°36' W 118°03'3 6.9
2017-Oct-18 12:00N 31°37' W 117°59'1431.1
2017-Oct-18 12:00N 31°36' W 118°00'4 8.3 320 / 201018.210.8 19.015.921.0
2017-Oct-18 11:30N 31°37' W 117°56'3 6.7
2017-Oct-18 11:00N 31°38' W 117°52'3 6.6
2017-Oct-18 10:30N 31°39' W 117°48'3 6.7
2017-Oct-18 10:00N 31°40' W 117°44'3 6.8
2017-Oct-18 09:30N 31°41' W 117°40'3 6.9
2017-Oct-18 09:00N 31°42' W 117°36'5 6.9
2017-Oct-18 08:17N 31°43' W 117°31'2 6.9
2017-Oct-18 08:00N 31°44' W 117°29'4 6.8
2017-Oct-18 07:24N 31°45' W 117°24'4 6.7
2017-Oct-18 06:51N 31°46' W 117°20'2 6.8
2017-Oct-18 06:30N 31°46' W 117°17'4 6.8
2017-Oct-18 05:59N 31°48' W 117°13'3 6.8
2017-Oct-18 05:30N 31°48' W 117°10'4 6.8
2017-Oct-18 04:59N 31°49' W 117°06'6 6.8
2017-Oct-18 04:09N 31°51' W 116°59'9 6.7
2017-Oct-18 02:45N 31°53' W 116°48'2 7.1
2017-Oct-18 02:30N 31°52' W 116°47'4 6.9
2017-Oct-18 02:00N 31°50' W 116°43'3 0.2
2017-Oct-17 13:56N 31°50' W 116°40'3 6.8
2017-Oct-17 13:30N 31°50' W 116°43'10 6.5
2017-Oct-17 12:00N 31°54' W 116°54'514.1 320 / 121018.210.8 19.015.921.0
2017-Oct-17 11:40N 31°56' W 116°59'2 9.6
2017-Oct-17 11:28N 31°56' W 117°01'7 9.4
2017-Oct-17 10:46N 31°58' W 117°09'4 9.9
2017-Oct-17 10:24N 31°59' W 117°13'410.0
2017-Oct-17 09:59N 32°00' W 117°17'510.3
2017-Oct-17 09:30N 32°04' W 117°21'510.2
2017-Oct-17 09:01N 32°08' W 117°25'510.0
2017-Oct-17 08:31N 32°12' W 117°29'510.0
2017-Oct-17 08:01N 32°16' W 117°33'510.1
2017-Oct-17 07:31N 32°21' W 117°34'5 9.8
2017-Oct-17 07:01N 32°25' W 117°35'5 9.6
2017-Oct-17 06:31N 32°30' W 117°36'5 9.0
2017-Oct-17 06:00N 32°34' W 117°38'5 9.1
2017-Oct-17 05:30N 32°36' W 117°43'4 8.3
2017-Oct-17 05:01N 32°39' W 117°46'5 9.3
2017-Oct-17 04:30N 32°44' W 117°47'5 9.7
2017-Oct-17 04:01N 32°49' W 117°49'5 9.7
2017-Oct-17 03:31N 32°53' W 117°50'5 9.7
2017-Oct-17 03:00N 32°57' W 117°53'5 9.6
2017-Oct-17 02:30N 33°01' W 117°57'5 9.6
2017-Oct-17 02:01N 33°05' W 118°01'5 9.9
2017-Oct-17 01:31N 33°08' W 118°05'5 9.6
2017-Oct-17 01:01N 33°12' W 118°08'5 9.6
2017-Oct-17 00:31N 33°16' W 118°12'5 9.7
2017-Oct-17 00:01N 33°19' W 118°17'3 6.0
2017-Oct-16 23:30N 33°21' W 118°19'0 0.2
2017-Oct-16 23:00N 33°21' W 118°19'0 0.0
2017-Oct-16 22:30N 33°21' W 118°19'0 0.0
2017-Oct-16 21:59N 33°21' W 118°19'0 0.0
2017-Oct-16 21:29N 33°21' W 118°19'0 0.1
2017-Oct-16 20:59N 33°21' W 118°19'0 0.1
2017-Oct-16 20:29N 33°21' W 118°19'0 0.0
2017-Oct-16 19:58N 33°21' W 118°19'0 0.0
2017-Oct-16 19:28N 33°21' W 118°19'0 0.0
2017-Oct-16 18:58N 33°21' W 118°19'0 0.0
2017-Oct-16 18:22N 33°21' W 118°19'0 0.0
2017-Oct-16 17:03N 33°21' W 118°19'0 0.1
2017-Oct-16 17:00N 33°21' W 118°19'0 0.1
2017-Oct-16 16:30N 33°21' W 118°19'0 0.0
2017-Oct-16 15:57N 33°21' W 118°19'0 0.1
2017-Oct-16 15:29N 33°21' W 118°19'0 0.0
2017-Oct-16 15:00N 33°21' W 118°19'0 0.1
2017-Oct-16 13:59N 33°21' W 118°19'3 5.7
2017-Oct-16 13:30N 33°19' W 118°17'4 7.2
2017-Oct-16 13:00N 33°15' W 118°17'4 7.3
2017-Oct-16 12:30N 33°12' W 118°17'4 7.3
2017-Oct-16 12:00N 33°08' W 118°17'4286.2
2017-Oct-16 12:00N 33°06' W 118°12'3 6.9 300 / 121020.310.8 19.015.921.0
2017-Oct-16 11:30N 33°04' W 118°15'4 7.1
2017-Oct-16 11:00N 33°02' W 118°12'3 7.0
2017-Oct-16 10:30N 32°60' W 118°09'4 7.3
2017-Oct-16 10:00N 32°57' W 118°06'4 7.4
2017-Oct-16 09:30N 32°55' W 118°03'4 7.2
2017-Oct-16 09:00N 32°52' W 117°60'3 6.7
2017-Oct-16 08:30N 32°53' W 117°56'3 6.6
2017-Oct-16 08:00N 32°56' W 117°56'3 6.9
2017-Oct-16 07:30N 32°59' W 117°57'3 6.8
2017-Oct-16 07:00N 33°03' W 117°58'3 7.0
2017-Oct-16 06:30N 33°06' W 117°60'4 7.3
2017-Oct-16 06:00N 33°09' W 118°02'3236.8
2017-Oct-16 06:00N 33°06' W 118°00'714.6 360 / 21021.810.8 19.017.520.0
2017-Oct-16 05:30N 33°13' W 118°03'3 6.9
2017-Oct-16 05:00N 33°16' W 118°05'4 7.1
2017-Oct-16 04:30N 33°19' W 118°06'4 7.2
2017-Oct-16 04:00N 33°23' W 118°08'4 7.4
2017-Oct-16 03:30N 33°26' W 118°09'4 7.3
2017-Oct-16 03:00N 33°29' W 118°11'4 7.5
2017-Oct-16 02:30N 33°33' W 118°12'5 9.4
2017-Oct-16 02:00N 33°38' W 118°12'610.8
2017-Oct-16 01:29N 33°43' W 118°11'2 3.6
2017-Oct-16 00:58N 33°45' W 118°11'0 0.0
2017-Oct-15 19:16N 33°45' W 118°11'0 0.0
2017-Oct-15 18:58N 33°45' W 118°11'0 0.0
2017-Oct-15 18:28N 33°45' W 118°11'0 0.0
2017-Oct-15 17:58N 33°45' W 118°11'0 0.0
2017-Oct-15 17:27N 33°45' W 118°11'0 0.0
2017-Oct-15 16:54N 33°45' W 118°11'0 0.0
2017-Oct-15 16:30N 33°45' W 118°11'0 0.0
2017-Oct-15 16:00N 33°45' W 118°11'0 0.0
2017-Oct-15 15:29N 33°45' W 118°11'0 0.0
2017-Oct-15 14:59N 33°45' W 118°11'0 0.0
2017-Oct-15 13:56N 33°45' W 118°11'0 0.0
2017-Oct-15 13:29N 33°45' W 118°11'0 0.0
2017-Oct-15 12:59N 33°45' W 118°11'0 0.5
2017-Oct-15 12:30N 33°45' W 118°11'3 7.0
2017-Oct-15 12:01N 33°41' W 118°11'4 8.3
2017-Oct-15 11:30N 33°37' W 118°10'4 7.5
2017-Oct-15 11:00N 33°34' W 118°09'4 7.5
2017-Oct-15 10:30N 33°30' W 118°07'3 7.0
2017-Oct-15 10:00N 33°27' W 118°06'4 7.1
2017-Oct-15 09:31N 33°24' W 118°04'4 7.1
2017-Oct-15 09:01N 33°20' W 118°03'4 7.3
2017-Oct-15 08:31N 33°17' W 118°01'4 7.1
2017-Oct-15 08:00N 33°14' W 117°60'3 7.0
2017-Oct-15 07:30N 33°10' W 117°58'4 7.1
2017-Oct-15 07:00N 33°07' W 117°56'3 7.0
2017-Oct-15 06:30N 33°04' W 117°55'4 7.1
2017-Oct-15 06:00N 33°01' W 117°53'4 7.3
2017-Oct-15 05:30N 32°57' W 117°52'4 7.1
2017-Oct-15 05:00N 32°54' W 117°50'4 7.0
2017-Oct-15 04:31N 32°51' W 117°49'3 6.9
2017-Oct-15 04:00N 32°47' W 117°48'4 7.1
2017-Oct-15 03:31N 32°44' W 117°47'4 7.3
2017-Oct-15 03:00N 32°40' W 117°46'4 7.3
2017-Oct-15 02:31N 32°37' W 117°45'4 7.1
2017-Oct-15 02:01N 32°36' W 117°41'4 7.0
2017-Oct-15 01:30N 32°34' W 117°37'4 7.2
2017-Oct-15 01:00N 32°31' W 117°37'4 7.4
2017-Oct-15 00:31N 32°27' W 117°37'4 7.3
2017-Oct-15 00:01N 32°23' W 117°37'4 7.3
2017-Oct-14 23:31N 32°20' W 117°37'4 7.2
2017-Oct-14 23:00N 32°16' W 117°37'4 7.2
2017-Oct-14 22:31N 32°12' W 117°37'4 7.4
2017-Oct-14 22:00N 32°09' W 117°37'4 7.2
2017-Oct-14 21:31N 32°05' W 117°37'4 7.2
2017-Oct-14 21:00N 32°01' W 117°37'4 7.4
2017-Oct-14 20:30N 31°58' W 117°37'4 7.3
2017-Oct-14 20:01N 31°54' W 117°37'3 6.9
2017-Oct-14 19:30N 31°51' W 117°37'4 7.1
2017-Oct-14 19:01N 31°49' W 117°41'4 7.2
2017-Oct-14 18:30N 31°48' W 117°45'4 7.2
2017-Oct-14 17:59N 31°48' W 117°49'3 7.3
2017-Oct-14 17:30N 31°47' W 117°53'4 7.0
2017-Oct-14 17:00N 31°45' W 117°57'511.3
2017-Oct-14 16:30N 31°42' W 118°02'4 7.7
2017-Oct-14 16:00N 31°39' W 117°58'510.1
2017-Oct-14 15:30N 31°44' W 117°59'4 8.7
2017-Oct-14 15:00N 31°45' W 118°04'3 6.6
2017-Oct-14 14:30N 31°44' W 118°08'3 6.6
2017-Oct-14 14:00N 31°43' W 118°11'3 6.5
2017-Oct-14 13:31N 31°40' W 118°12'3 6.6
2017-Oct-14 13:00N 31°37' W 118°12'3 6.2
2017-Oct-14 12:30N 31°35' W 118°09'3 6.4
2017-Oct-14 12:00N 31°35' W 118°05'7420.1
2017-Oct-14 12:00N 31°30' W 118°00'612.4 140 / 41018.210.8 18.014.821.0
2017-Oct-14 11:30N 31°36' W 118°02'3 6.7
2017-Oct-14 11:00N 31°37' W 117°58'3 6.7
2017-Oct-14 10:30N 31°38' W 117°54'3 6.6
2017-Oct-14 10:01N 31°39' W 117°50'3 6.7
2017-Oct-14 09:30N 31°39' W 117°47'3 6.7
2017-Oct-14 09:00N 31°40' W 117°43'5 6.8
2017-Oct-14 08:18N 31°42' W 117°37'3 6.6
2017-Oct-14 07:50N 31°42' W 117°34'3 6.6
2017-Oct-14 07:26N 31°43' W 117°31'10 6.7
2017-Oct-14 06:00N 31°46' W 117°20'21 1.2
2017-Oct-13 12:06N 31°57' W 116°59'551.9
2017-Oct-13 12:00N 31°54' W 116°54'1719.8 100 / 61018.210.8 18.016.421.0
2017-Oct-13 11:08N 32°02' W 117°12'412.2
2017-Oct-13 10:46N 32°03' W 117°17'312.3
2017-Oct-13 10:31N 32°05' W 117°20'612.2
2017-Oct-13 10:01N 32°10' W 117°24'612.2
2017-Oct-13 09:31N 32°15' W 117°29'611.9
2017-Oct-13 09:00N 32°20' W 117°32'611.7
2017-Oct-13 08:30N 32°25' W 117°35'611.7
2017-Oct-13 08:01N 32°31' W 117°38'611.5
2017-Oct-13 07:30N 32°36' W 117°41'611.4
2017-Oct-13 07:01N 32°40' W 117°46'611.9
2017-Oct-13 06:31N 32°45' W 117°49'611.8
2017-Oct-13 06:01N 32°51' W 117°52'4238.6
2017-Oct-13 06:00N 32°48' W 117°48'1020.0 330 / 21018.210.8 18.016.419.0
2017-Oct-13 05:31N 32°56' W 117°54'612.1
2017-Oct-13 05:00N 33°02' W 117°57'611.9
2017-Oct-13 04:31N 33°07' W 117°60'612.1
2017-Oct-13 04:01N 33°13' W 118°03'612.0
2017-Oct-13 03:31N 33°18' W 118°06'611.8
2017-Oct-13 03:00N 33°24' W 118°08'611.9
2017-Oct-13 02:30N 33°29' W 118°11'611.9
2017-Oct-13 02:00N 33°35' W 118°13'611.6
2017-Oct-13 01:30N 33°41' W 118°12'4 8.7
2017-Oct-13 01:00N 33°45' W 118°11'0 0.2
2017-Oct-13 00:29N 33°45' W 118°11'0 0.0
2017-Oct-12 23:49N 33°45' W 118°11'0 0.0
2017-Oct-12 23:28N 33°45' W 118°11'0 0.0
2017-Oct-12 22:58N 33°45' W 118°11'0 0.0
2017-Oct-12 22:22N 33°45' W 118°11'0 0.0
2017-Oct-12 21:58N 33°45' W 118°11'0 0.0
2017-Oct-12 21:30N 33°45' W 118°11'0 0.0
2017-Oct-12 21:00N 33°45' W 118°11'0 0.0
2017-Oct-12 20:30N 33°45' W 118°11'0 0.0
2017-Oct-12 19:48N 33°45' W 118°11'0 0.0
2017-Oct-12 19:30N 33°45' W 118°11'0 0.0
2017-Oct-12 18:59N 33°45' W 118°11'0 0.0
2017-Oct-12 18:29N 33°45' W 118°11'0 0.0
2017-Oct-12 17:59N 33°45' W 118°11'0 0.0
2017-Oct-12 17:23N 33°45' W 118°11'0 0.0
2017-Oct-12 16:59N 33°45' W 118°11'0 0.0
2017-Oct-12 16:28N 33°45' W 118°11'0 0.0
2017-Oct-12 15:58N 33°45' W 118°11'0 0.0
2017-Oct-12 15:25N 33°45' W 118°11'0 0.0
2017-Oct-12 14:41N 33°45' W 118°11'0 0.0
2017-Oct-12 14:30N 33°45' W 118°11'0 0.0
2017-Oct-12 14:00N 33°45' W 118°11'0 0.0
2017-Oct-12 13:30N 33°45' W 118°11'0 0.0
2017-Oct-12 13:00N 33°45' W 118°11'0 0.4
2017-Oct-12 12:28N 33°45' W 118°11'4 7.7
2017-Oct-12 12:00N 33°41' W 118°11'4 8.3
2017-Oct-12 11:30N 33°37' W 118°10'4 7.3
2017-Oct-12 11:00N 33°34' W 118°09'4 7.5
2017-Oct-12 10:30N 33°30' W 118°07'3 6.8
2017-Oct-12 10:00N 33°27' W 118°06'4 7.2
2017-Oct-12 09:30N 33°24' W 118°04'4 7.2
2017-Oct-12 09:00N 33°20' W 118°03'4 7.1
2017-Oct-12 08:30N 33°17' W 118°01'4 7.3
2017-Oct-12 08:00N 33°14' W 117°59'4 7.2
2017-Oct-12 07:30N 33°10' W 117°58'4 7.1
2017-Oct-12 07:01N 33°07' W 117°56'4 7.0
2017-Oct-12 06:30N 33°04' W 117°55'4 7.4
2017-Oct-12 06:00N 33°00' W 117°53'4282.8
2017-Oct-12 06:00N 33°00' W 117°48'4 8.8 270 / 81015.210.8 19.012.419.0
2017-Oct-12 05:30N 32°57' W 117°51'4 8.2
2017-Oct-12 05:00N 32°53' W 117°50'4 8.2
2017-Oct-12 04:30N 32°49' W 117°49'4 8.2
2017-Oct-12 04:00N 32°45' W 117°48'4 8.3
2017-Oct-12 03:30N 32°41' W 117°47'4 7.5
2017-Oct-12 03:00N 32°37' W 117°45'4 7.8
2017-Oct-12 02:30N 32°36' W 117°41'4 7.8
2017-Oct-12 02:00N 32°34' W 117°37'4 7.5
2017-Oct-12 01:31N 32°31' W 117°37'4 7.6
2017-Oct-12 01:01N 32°27' W 117°37'4 7.9
2017-Oct-12 00:30N 32°23' W 117°37'4 7.9
2017-Oct-12 00:00N 32°19' W 117°37'4 7.9
2017-Oct-11 23:30N 32°15' W 117°36'4 7.9
2017-Oct-11 23:01N 32°11' W 117°36'4 7.8
2017-Oct-11 22:30N 32°07' W 117°37'4 7.8
2017-Oct-11 21:57N 32°03' W 117°37'3 7.6
2017-Oct-11 21:30N 31°59' W 117°37'4 7.5
2017-Oct-11 20:58N 31°55' W 117°37'4 7.6
2017-Oct-11 20:30N 31°52' W 117°37'3 6.6
2017-Oct-11 20:00N 31°49' W 117°39'4 8.0
2017-Oct-11 19:30N 31°49' W 117°44'4 8.6
2017-Oct-11 19:00N 31°48' W 117°49'4 8.6
2017-Oct-11 18:30N 31°48' W 117°54'2 4.4
2017-Oct-11 18:00N 31°46' W 117°55'3 6.7
2017-Oct-11 17:30N 31°44' W 117°52'3 5.1
2017-Oct-11 17:00N 31°42' W 117°54'8 1.6
2017-Oct-11 12:00N 31°36' W 118°00'41 6.9 340 / 191016.210.8 19.015.921.0
2017-Oct-11 06:00N 31°42' W 117°12'29 1.8 330 / 151013.210.8 19.014.219.0
2017-Oct-10 14:00N 31°50' W 116°39'3 6.9
2017-Oct-10 13:30N 31°50' W 116°43'4 7.8
2017-Oct-10 13:01N 31°52' W 116°47'5 8.4
2017-Oct-10 12:27N 31°54' W 116°52'4 8.5
2017-Oct-10 12:00N 31°55' W 116°57'2386.6
2017-Oct-10 12:00N 31°54' W 116°54'   340 / 101017.210.8 19.015.921.0
Track history (hours):
 
Tides and Currents Weather Stations Pressure Air Temp Water Temp Dewpoint Dewpoint Depression Visibility Wind Speed Wind Dir Waves Ship Positions

Imagination

Operator: Carnival Cruise Lines

Last reported at 2017-Oct-20 12:00 UTC. Time now 2017-Oct-20 19:52 UTC.
Position N 31°54' W 116°48'.

Type: Ship. MMSI: 309933000.

Wind from 070 at 2 knots

Barometer 1018.2 mb
Air temperature 19.0 ° C
Visibility: greater than 10.8 NM
Dewpoint 15.9 ° C
Water temperature 21.0 ° C

Date/timePositionNaut miles runAvg speedWind from/ knotsBaromVisibWave heightAir tempDewpointWater temp
2017-Oct-20 12:00N 31°54' W 116°48'4615.7 070 / 21018.210.8 19.015.921.0
2017-Oct-20 09:05N 32°20' W 117°32'212.0
2017-Oct-20 08:57N 32°22' W 117°33'511.8
2017-Oct-20 08:30N 32°26' W 117°35'611.4
2017-Oct-20 08:00N 32°32' W 117°38'611.1
2017-Oct-20 07:30N 32°36' W 117°42'510.8
2017-Oct-20 07:00N 32°40' W 117°46'611.5
2017-Oct-20 06:30N 32°45' W 117°49'611.8
2017-Oct-20 06:00N 32°51' W 117°52'4314.8
2017-Oct-20 06:00N 32°48' W 117°48'1020.4 270 / 121018.210.8 19.015.921.0
2017-Oct-20 05:30N 32°56' W 117°54'611.8
2017-Oct-20 05:00N 33°02' W 117°57'611.7
2017-Oct-20 04:30N 33°07' W 117°60'612.0
2017-Oct-20 04:00N 33°13' W 118°03'612.3
2017-Oct-20 03:29N 33°19' W 118°06'611.8
2017-Oct-20 03:00N 33°24' W 118°08'611.9
2017-Oct-20 02:30N 33°29' W 118°11'611.9
2017-Oct-20 02:00N 33°35' W 118°13'611.4
2017-Oct-20 01:30N 33°41' W 118°12'4 8.8
2017-Oct-20 01:00N 33°45' W 118°11'0 0.1
2017-Oct-20 00:08N 33°45' W 118°11'0 0.0
2017-Oct-19 23:55N 33°45' W 118°11'0 0.0
2017-Oct-19 23:25N 33°45' W 118°11'0 0.0
2017-Oct-19 22:55N 33°45' W 118°11'0 0.0
2017-Oct-19 22:25N 33°45' W 118°11'0 0.0
2017-Oct-19 21:49N 33°45' W 118°11'0 0.0
2017-Oct-19 21:24N 33°45' W 118°11'0 0.0
2017-Oct-19 21:00N 33°45' W 118°11'0 0.0
2017-Oct-19 20:24N 33°45' W 118°11'0 0.0
2017-Oct-19 20:00N 33°45' W 118°11'0 0.0
2017-Oct-19 17:47N 33°45' W 118°11'0 0.0
2017-Oct-19 17:29N 33°45' W 118°11'0 0.0
2017-Oct-19 16:58N 33°45' W 118°11'0 0.0
2017-Oct-19 16:28N 33°45' W 118°11'0 0.0
2017-Oct-19 15:22N 33°45' W 118°11'0 0.1
2017-Oct-19 12:28N 33°45' W 118°11'4 6.5
2017-Oct-19 11:55N 33°41' W 118°11'4 9.0
2017-Oct-19 11:30N 33°38' W 118°10'4 7.8
2017-Oct-19 11:00N 33°34' W 118°09'4 7.3
2017-Oct-19 10:30N 33°30' W 118°07'4 7.0
2017-Oct-19 10:00N 33°27' W 118°06'4 7.3
2017-Oct-19 09:30N 33°24' W 118°04'4 7.4
2017-Oct-19 09:00N 33°20' W 118°03'4 7.4
2017-Oct-19 08:30N 33°17' W 118°01'4 7.5
2017-Oct-19 08:00N 33°13' W 117°59'4 7.2
2017-Oct-19 07:30N 33°10' W 117°58'4 7.5
2017-Oct-19 07:00N 33°07' W 117°56'4 7.3
2017-Oct-19 06:30N 33°03' W 117°54'4 7.2
2017-Oct-19 06:00N 32°60' W 117°53'7459.6
2017-Oct-19 06:00N 33°06' W 117°48'1020.0 270 / 91016.210.8 19.017.520.0
2017-Oct-19 05:30N 32°57' W 117°51'4 7.2
2017-Oct-19 05:00N 32°53' W 117°50'4 7.1
2017-Oct-19 04:30N 32°50' W 117°49'3 7.0
2017-Oct-19 04:00N 32°46' W 117°48'3 6.8
2017-Oct-19 03:30N 32°43' W 117°47'4 7.1
2017-Oct-19 03:00N 32°39' W 117°46'3 7.0
2017-Oct-19 02:30N 32°37' W 117°44'4 7.1
2017-Oct-19 02:00N 32°36' W 117°40'4 7.0
2017-Oct-19 01:30N 32°34' W 117°36'4 7.2
2017-Oct-19 01:00N 32°31' W 117°36'4 7.1
2017-Oct-19 00:30N 32°27' W 117°35'5 9.9
2017-Oct-19 00:00N 32°24' W 117°30'413.8 290 / 121019.0 5.4 20.016.921.0
2017-Oct-18 23:43N 32°21' W 117°33'2 7.0
2017-Oct-18 23:24N 32°19' W 117°33'3 7.0
2017-Oct-18 23:00N 32°17' W 117°32'4 7.2
2017-Oct-18 22:30N 32°13' W 117°31'4 7.3
2017-Oct-18 22:00N 32°09' W 117°30'4 7.3
2017-Oct-18 21:30N 32°06' W 117°29'4 8.7
2017-Oct-18 21:00N 32°02' W 117°27'510.7
2017-Oct-18 20:30N 31°58' W 117°32'612.0
2017-Oct-18 20:00N 31°54' W 117°36'612.7
2017-Oct-18 19:30N 31°47' W 117°36'712.5
2017-Oct-18 18:59N 31°41' W 117°35'511.1
2017-Oct-18 18:30N 31°36' W 117°38'713.2
2017-Oct-18 18:00N 31°40' W 117°45'712.7
2017-Oct-18 17:29N 31°44' W 117°51'4 8.1
2017-Oct-18 17:00N 31°41' W 117°54'3 6.2
2017-Oct-18 16:30N 31°41' W 117°58'4 7.0
2017-Oct-18 16:00N 31°44' W 118°01'3 6.8
2017-Oct-18 15:30N 31°45' W 118°04'3 6.8
2017-Oct-18 15:00N 31°44' W 118°08'6 6.3
2017-Oct-18 14:00N 31°39' W 118°12'3 6.9
2017-Oct-18 13:30N 31°35' W 118°11'3 6.3
2017-Oct-18 12:58N 31°35' W 118°07'3 7.1
2017-Oct-18 12:30N 31°36' W 118°03'3 6.9
2017-Oct-18 12:00N 31°37' W 117°59'1431.1
2017-Oct-18 12:00N 31°36' W 118°00'4 8.3 320 / 201018.210.8 19.015.921.0
2017-Oct-18 11:30N 31°37' W 117°56'3 6.7
2017-Oct-18 11:00N 31°38' W 117°52'3 6.6
2017-Oct-18 10:30N 31°39' W 117°48'3 6.7
2017-Oct-18 10:00N 31°40' W 117°44'3 6.8
2017-Oct-18 09:30N 31°41' W 117°40'3 6.9
2017-Oct-18 09:00N 31°42' W 117°36'5 6.9
2017-Oct-18 08:17N 31°43' W 117°31'2 6.9
2017-Oct-18 08:00N 31°44' W 117°29'4 6.8
2017-Oct-18 07:24N 31°45' W 117°24'4 6.7
2017-Oct-18 06:51N 31°46' W 117°20'2 6.8
2017-Oct-18 06:30N 31°46' W 117°17'4 6.8
2017-Oct-18 05:59N 31°48' W 117°13'3 6.8
2017-Oct-18 05:30N 31°48' W 117°10'4 6.8
2017-Oct-18 04:59N 31°49' W 117°06'6 6.8
2017-Oct-18 04:09N 31°51' W 116°59'9 6.7
2017-Oct-18 02:45N 31°53' W 116°48'2 7.1
2017-Oct-18 02:30N 31°52' W 116°47'4 6.9
2017-Oct-18 02:00N 31°50' W 116°43'3 0.2
2017-Oct-17 13:56N 31°50' W 116°40'3 6.8
2017-Oct-17 13:30N 31°50' W 116°43'10 6.5
2017-Oct-17 12:00N 31°54' W 116°54'514.1 320 / 121018.210.8 19.015.921.0
2017-Oct-17 11:40N 31°56' W 116°59'2 9.6
2017-Oct-17 11:28N 31°56' W 117°01'7 9.4
2017-Oct-17 10:46N 31°58' W 117°09'4 9.9
2017-Oct-17 10:24N 31°59' W 117°13'410.0
2017-Oct-17 09:59N 32°00' W 117°17'510.3
2017-Oct-17 09:30N 32°04' W 117°21'510.2
2017-Oct-17 09:01N 32°08' W 117°25'510.0
2017-Oct-17 08:31N 32°12' W 117°29'510.0
2017-Oct-17 08:01N 32°16' W 117°33'510.1
2017-Oct-17 07:31N 32°21' W 117°34'5 9.8
2017-Oct-17 07:01N 32°25' W 117°35'5 9.6
2017-Oct-17 06:31N 32°30' W 117°36'5 9.0
2017-Oct-17 06:00N 32°34' W 117°38'5 9.1
2017-Oct-17 05:30N 32°36' W 117°43'4 8.3
2017-Oct-17 05:01N 32°39' W 117°46'5 9.3
2017-Oct-17 04:30N 32°44' W 117°47'5 9.7
2017-Oct-17 04:01N 32°49' W 117°49'5 9.7
2017-Oct-17 03:31N 32°53' W 117°50'5 9.7
2017-Oct-17 03:00N 32°57' W 117°53'5 9.6
2017-Oct-17 02:30N 33°01' W 117°57'5 9.6
2017-Oct-17 02:01N 33°05' W 118°01'5 9.9
2017-Oct-17 01:31N 33°08' W 118°05'5 9.6
2017-Oct-17 01:01N 33°12' W 118°08'5 9.6
2017-Oct-17 00:31N 33°16' W 118°12'5 9.7
2017-Oct-17 00:01N 33°19' W 118°17'3 6.0
2017-Oct-16 23:30N 33°21' W 118°19'0 0.2
2017-Oct-16 23:00N 33°21' W 118°19'0 0.0
2017-Oct-16 22:30N 33°21' W 118°19'0 0.0
2017-Oct-16 21:59N 33°21' W 118°19'0 0.0
2017-Oct-16 21:29N 33°21' W 118°19'0 0.1
2017-Oct-16 20:59N 33°21' W 118°19'0 0.1
2017-Oct-16 20:29N 33°21' W 118°19'0 0.0
2017-Oct-16 19:58N 33°21' W 118°19'0 0.0
2017-Oct-16 19:28N 33°21' W 118°19'0 0.0
2017-Oct-16 18:58N 33°21' W 118°19'0 0.0
2017-Oct-16 18:22N 33°21' W 118°19'0 0.0
2017-Oct-16 17:03N 33°21' W 118°19'0 0.1
2017-Oct-16 17:00N 33°21' W 118°19'0 0.1
2017-Oct-16 16:30N 33°21' W 118°19'0 0.0
2017-Oct-16 15:57N 33°21' W 118°19'0 0.1
2017-Oct-16 15:29N 33°21' W 118°19'0 0.0
2017-Oct-16 15:00N 33°21' W 118°19'0 0.1
2017-Oct-16 13:59N 33°21' W 118°19'3 5.7
2017-Oct-16 13:30N 33°19' W 118°17'4 7.2
2017-Oct-16 13:00N 33°15' W 118°17'4 7.3
2017-Oct-16 12:30N 33°12' W 118°17'4 7.3
2017-Oct-16 12:00N 33°08' W 118°17'4286.2
2017-Oct-16 12:00N 33°06' W 118°12'3 6.9 300 / 121020.310.8 19.015.921.0
2017-Oct-16 11:30N 33°04' W 118°15'4 7.1
2017-Oct-16 11:00N 33°02' W 118°12'3 7.0
2017-Oct-16 10:30N 32°60' W 118°09'4 7.3
2017-Oct-16 10:00N 32°57' W 118°06'4 7.4
2017-Oct-16 09:30N 32°55' W 118°03'4 7.2
2017-Oct-16 09:00N 32°52' W 117°60'3 6.7
2017-Oct-16 08:30N 32°53' W 117°56'3 6.6
2017-Oct-16 08:00N 32°56' W 117°56'3 6.9
2017-Oct-16 07:30N 32°59' W 117°57'3 6.8
2017-Oct-16 07:00N 33°03' W 117°58'3 7.0
2017-Oct-16 06:30N 33°06' W 117°60'4 7.3
2017-Oct-16 06:00N 33°09' W 118°02'3236.8
2017-Oct-16 06:00N 33°06' W 118°00'714.6 360 / 21021.810.8 19.017.520.0
2017-Oct-16 05:30N 33°13' W 118°03'3 6.9
2017-Oct-16 05:00N 33°16' W 118°05'4 7.1
2017-Oct-16 04:30N 33°19' W 118°06'4 7.2
2017-Oct-16 04:00N 33°23' W 118°08'4 7.4
2017-Oct-16 03:30N 33°26' W 118°09'4 7.3
2017-Oct-16 03:00N 33°29' W 118°11'4 7.5
2017-Oct-16 02:30N 33°33' W 118°12'5 9.4
2017-Oct-16 02:00N 33°38' W 118°12'610.8
2017-Oct-16 01:29N 33°43' W 118°11'2 3.6
2017-Oct-16 00:58N 33°45' W 118°11'0 0.0
2017-Oct-15 19:16N 33°45' W 118°11'0 0.0
2017-Oct-15 18:58N 33°45' W 118°11'0 0.0
2017-Oct-15 18:28N 33°45' W 118°11'0 0.0
2017-Oct-15 17:58N 33°45' W 118°11'0 0.0
2017-Oct-15 17:27N 33°45' W 118°11'0 0.0
2017-Oct-15 16:54N 33°45' W 118°11'0 0.0
2017-Oct-15 16:30N 33°45' W 118°11'0 0.0
2017-Oct-15 16:00N 33°45' W 118°11'0 0.0
2017-Oct-15 15:29N 33°45' W 118°11'0 0.0
2017-Oct-15 14:59N 33°45' W 118°11'0 0.0
2017-Oct-15 13:56N 33°45' W 118°11'0 0.0
2017-Oct-15 13:29N 33°45' W 118°11'0 0.0
2017-Oct-15 12:59N 33°45' W 118°11'0 0.5
2017-Oct-15 12:30N 33°45' W 118°11'3 7.0
2017-Oct-15 12:01N 33°41' W 118°11'4 8.3
2017-Oct-15 11:30N 33°37' W 118°10'4 7.5
2017-Oct-15 11:00N 33°34' W 118°09'4 7.5
2017-Oct-15 10:30N 33°30' W 118°07'3 7.0
2017-Oct-15 10:00N 33°27' W 118°06'4 7.1
2017-Oct-15 09:31N 33°24' W 118°04'4 7.1
2017-Oct-15 09:01N 33°20' W 118°03'4 7.3
2017-Oct-15 08:31N 33°17' W 118°01'4 7.1
2017-Oct-15 08:00N 33°14' W 117°60'3 7.0
2017-Oct-15 07:30N 33°10' W 117°58'4 7.1
2017-Oct-15 07:00N 33°07' W 117°56'3 7.0
2017-Oct-15 06:30N 33°04' W 117°55'4 7.1
2017-Oct-15 06:00N 33°01' W 117°53'4 7.3
2017-Oct-15 05:30N 32°57' W 117°52'4 7.1
2017-Oct-15 05:00N 32°54' W 117°50'4 7.0
2017-Oct-15 04:31N 32°51' W 117°49'3 6.9
2017-Oct-15 04:00N 32°47' W 117°48'4 7.1
2017-Oct-15 03:31N 32°44' W 117°47'4 7.3
2017-Oct-15 03:00N 32°40' W 117°46'4 7.3
2017-Oct-15 02:31N 32°37' W 117°45'4 7.1
2017-Oct-15 02:01N 32°36' W 117°41'4 7.0
2017-Oct-15 01:30N 32°34' W 117°37'4 7.2
2017-Oct-15 01:00N 32°31' W 117°37'4 7.4
2017-Oct-15 00:31N 32°27' W 117°37'4 7.3
2017-Oct-15 00:01N 32°23' W 117°37'4 7.3
2017-Oct-14 23:31N 32°20' W 117°37'4 7.2
2017-Oct-14 23:00N 32°16' W 117°37'4 7.2
2017-Oct-14 22:31N 32°12' W 117°37'4 7.4
2017-Oct-14 22:00N 32°09' W 117°37'4 7.2
2017-Oct-14 21:31N 32°05' W 117°37'4 7.2
2017-Oct-14 21:00N 32°01' W 117°37'4 7.4
2017-Oct-14 20:30N 31°58' W 117°37'4 7.3
2017-Oct-14 20:01N 31°54' W 117°37'3 6.9
2017-Oct-14 19:30N 31°51' W 117°37'4 7.1
2017-Oct-14 19:01N 31°49' W 117°41'4 7.2
2017-Oct-14 18:30N 31°48' W 117°45'4 7.2
2017-Oct-14 17:59N 31°48' W 117°49'3 7.3
2017-Oct-14 17:30N 31°47' W 117°53'4 7.0
2017-Oct-14 17:00N 31°45' W 117°57'511.3
2017-Oct-14 16:30N 31°42' W 118°02'4 7.7
2017-Oct-14 16:00N 31°39' W 117°58'510.1
2017-Oct-14 15:30N 31°44' W 117°59'4 8.7
2017-Oct-14 15:00N 31°45' W 118°04'3 6.6
2017-Oct-14 14:30N 31°44' W 118°08'3 6.6
2017-Oct-14 14:00N 31°43' W 118°11'3 6.5
2017-Oct-14 13:31N 31°40' W 118°12'3 6.6
2017-Oct-14 13:00N 31°37' W 118°12'3 6.2
2017-Oct-14 12:30N 31°35' W 118°09'3 6.4
2017-Oct-14 12:00N 31°35' W 118°05'7420.1
2017-Oct-14 12:00N 31°30' W 118°00'612.4 140 / 41018.210.8 18.014.821.0
2017-Oct-14 11:30N 31°36' W 118°02'3 6.7
2017-Oct-14 11:00N 31°37' W 117°58'3 6.7
2017-Oct-14 10:30N 31°38' W 117°54'3 6.6
2017-Oct-14 10:01N 31°39' W 117°50'3 6.7
2017-Oct-14 09:30N 31°39' W 117°47'3 6.7
2017-Oct-14 09:00N 31°40' W 117°43'5 6.8
2017-Oct-14 08:18N 31°42' W 117°37'3 6.6
2017-Oct-14 07:50N 31°42' W 117°34'3 6.6
2017-Oct-14 07:26N 31°43' W 117°31'10 6.7
2017-Oct-14 06:00N 31°46' W 117°20'21 1.2
2017-Oct-13 12:06N 31°57' W 116°59'551.9
2017-Oct-13 12:00N 31°54' W 116°54'1719.8 100 / 61018.210.8 18.016.421.0
2017-Oct-13 11:08N 32°02' W 117°12'412.2
2017-Oct-13 10:46N 32°03' W 117°17'312.3
2017-Oct-13 10:31N 32°05' W 117°20'612.2
2017-Oct-13 10:01N 32°10' W 117°24'612.2
2017-Oct-13 09:31N 32°15' W 117°29'611.9
2017-Oct-13 09:00N 32°20' W 117°32'611.7
2017-Oct-13 08:30N 32°25' W 117°35'611.7
2017-Oct-13 08:01N 32°31' W 117°38'611.5
2017-Oct-13 07:30N 32°36' W 117°41'611.4
2017-Oct-13 07:01N 32°40' W 117°46'611.9
2017-Oct-13 06:31N 32°45' W 117°49'611.8
2017-Oct-13 06:01N 32°51' W 117°52'4238.6
2017-Oct-13 06:00N 32°48' W 117°48'1020.0 330 / 21018.210.8 18.016.419.0
2017-Oct-13 05:31N 32°56' W 117°54'612.1
2017-Oct-13 05:00N 33°02' W 117°57'611.9
2017-Oct-13 04:31N 33°07' W 117°60'612.1
2017-Oct-13 04:01N 33°13' W 118°03'612.0
2017-Oct-13 03:31N 33°18' W 118°06'611.8
2017-Oct-13 03:00N 33°24' W 118°08'611.9
2017-Oct-13 02:30N 33°29' W 118°11'611.9
2017-Oct-13 02:00N 33°35' W 118°13'611.6
2017-Oct-13 01:30N 33°41' W 118°12'4 8.7
2017-Oct-13 01:00N 33°45' W 118°11'0 0.2
2017-Oct-13 00:29N 33°45' W 118°11'0 0.0
2017-Oct-12 23:49N 33°45' W 118°11'0 0.0
2017-Oct-12 23:28N 33°45' W 118°11'0 0.0
2017-Oct-12 22:58N 33°45' W 118°11'0 0.0
2017-Oct-12 22:22N 33°45' W 118°11'0 0.0
2017-Oct-12 21:58N 33°45' W 118°11'0 0.0
2017-Oct-12 21:30N 33°45' W 118°11'0 0.0
2017-Oct-12 21:00N 33°45' W 118°11'0 0.0
2017-Oct-12 20:30N 33°45' W 118°11'0 0.0
2017-Oct-12 19:48N 33°45' W 118°11'0 0.0
2017-Oct-12 19:30N 33°45' W 118°11'0 0.0
2017-Oct-12 18:59N 33°45' W 118°11'0 0.0
2017-Oct-12 18:29N 33°45' W 118°11'0 0.0
2017-Oct-12 17:59N 33°45' W 118°11'0 0.0
2017-Oct-12 17:23N 33°45' W 118°11'0 0.0
2017-Oct-12 16:59N 33°45' W 118°11'0 0.0
2017-Oct-12 16:28N 33°45' W 118°11'0 0.0
2017-Oct-12 15:58N 33°45' W 118°11'0 0.0
2017-Oct-12 15:25N 33°45' W 118°11'0 0.0
2017-Oct-12 14:41N 33°45' W 118°11'0 0.0
2017-Oct-12 14:30N 33°45' W 118°11'0 0.0
2017-Oct-12 14:00N 33°45' W 118°11'0 0.0
2017-Oct-12 13:30N 33°45' W 118°11'0 0.0
2017-Oct-12 13:00N 33°45' W 118°11'0 0.4
2017-Oct-12 12:28N 33°45' W 118°11'4 7.7
2017-Oct-12 12:00N 33°41' W 118°11'4 8.3
2017-Oct-12 11:30N 33°37' W 118°10'4 7.3
2017-Oct-12 11:00N 33°34' W 118°09'4 7.5
2017-Oct-12 10:30N 33°30' W 118°07'3 6.8
2017-Oct-12 10:00N 33°27' W 118°06'4 7.2
2017-Oct-12 09:30N 33°24' W 118°04'4 7.2
2017-Oct-12 09:00N 33°20' W 118°03'4 7.1
2017-Oct-12 08:30N 33°17' W 118°01'4 7.3
2017-Oct-12 08:00N 33°14' W 117°59'4 7.2
2017-Oct-12 07:30N 33°10' W 117°58'4 7.1
2017-Oct-12 07:01N 33°07' W 117°56'4 7.0
2017-Oct-12 06:30N 33°04' W 117°55'4 7.4
2017-Oct-12 06:00N 33°00' W 117°53'4282.8
2017-Oct-12 06:00N 33°00' W 117°48'4 8.8 270 / 81015.210.8 19.012.419.0
2017-Oct-12 05:30N 32°57' W 117°51'4 8.2
2017-Oct-12 05:00N 32°53' W 117°50'4 8.2
2017-Oct-12 04:30N 32°49' W 117°49'4 8.2
2017-Oct-12 04:00N 32°45' W 117°48'4 8.3
2017-Oct-12 03:30N 32°41' W 117°47'4 7.5
2017-Oct-12 03:00N 32°37' W 117°45'4 7.8
2017-Oct-12 02:30N 32°36' W 117°41'4 7.8
2017-Oct-12 02:00N 32°34' W 117°37'4 7.5
2017-Oct-12 01:31N 32°31' W 117°37'4 7.6
2017-Oct-12 01:01N 32°27' W 117°37'4 7.9
2017-Oct-12 00:30N 32°23' W 117°37'4 7.9
2017-Oct-12 00:00N 32°19' W 117°37'4 7.9
2017-Oct-11 23:30N 32°15' W 117°36'4 7.9
2017-Oct-11 23:01N 32°11' W 117°36'4 7.8
2017-Oct-11 22:30N 32°07' W 117°37'4 7.8
2017-Oct-11 21:57N 32°03' W 117°37'3 7.6
2017-Oct-11 21:30N 31°59' W 117°37'4 7.5
2017-Oct-11 20:58N 31°55' W 117°37'4 7.6
2017-Oct-11 20:30N 31°52' W 117°37'3 6.6
2017-Oct-11 20:00N 31°49' W 117°39'4 8.0
2017-Oct-11 19:30N 31°49' W 117°44'4 8.6
2017-Oct-11 19:00N 31°48' W 117°49'4 8.6
2017-Oct-11 18:30N 31°48' W 117°54'2 4.4
2017-Oct-11 18:00N 31°46' W 117°55'3 6.7
2017-Oct-11 17:30N 31°44' W 117°52'3 5.1
2017-Oct-11 17:00N 31°42' W 117°54'8 1.6
2017-Oct-11 12:00N 31°36' W 118°00'41 6.9 340 / 191016.210.8 19.015.921.0
2017-Oct-11 06:00N 31°42' W 117°12'29 1.8 330 / 151013.210.8 19.014.219.0
2017-Oct-10 14:00N 31°50' W 116°39'3 6.9
2017-Oct-10 13:30N 31°50' W 116°43'4 7.8
2017-Oct-10 13:01N 31°52' W 116°47'5 8.4
2017-Oct-10 12:27N 31°54' W 116°52'4 8.5
2017-Oct-10 12:00N 31°55' W 116°57'2386.6
2017-Oct-10 12:00N 31°54' W 116°54'   340 / 101017.210.8 19.015.921.0

Dump ship's entire track history